createdAt,value
2023-02-23T00:01:59.698Z,1797
2023-02-23T00:07:18.460Z,1811
2023-02-23T00:12:36.644Z,1829
2023-02-23T00:17:55.455Z,1835
2023-02-23T00:23:14.325Z,1844
2023-02-23T00:28:32.568Z,1840
2023-02-23T00:33:51.047Z,1839
2023-02-23T00:39:09.543Z,1844
2023-02-23T00:44:28.311Z,1846
2023-02-23T00:49:46.937Z,1869
2023-02-23T00:55:05.761Z,1868
2023-02-23T01:00:24.242Z,1872
2023-02-23T01:05:43.030Z,1876
2023-02-23T01:11:01.824Z,1873
2023-02-23T01:16:20.320Z,1872
2023-02-23T01:21:38.558Z,1881
2023-02-23T01:26:57.375Z,1865
2023-02-23T01:32:15.983Z,1873
2023-02-23T01:37:34.964Z,1871
2023-02-23T01:42:53.721Z,1872
2023-02-23T01:48:12.589Z,1874
2023-02-23T01:53:31.225Z,1869
2023-02-23T01:58:49.946Z,1862
2023-02-23T02:04:08.706Z,1860
2023-02-23T02:09:26.947Z,1863
2023-02-23T02:14:45.615Z,1850
2023-02-23T02:20:04.129Z,1847
2023-02-23T02:25:22.639Z,1839
2023-02-23T02:30:41.477Z,1830
2023-02-23T02:36:00.340Z,1831
2023-02-23T02:41:19.550Z,1827
2023-02-23T02:46:39.189Z,1826
2023-02-23T02:51:58.036Z,1825
2023-02-23T02:57:16.847Z,1835
2023-02-23T03:02:35.470Z,1840
2023-02-23T03:07:54.216Z,1836
2023-02-23T03:13:12.815Z,1844
2023-02-23T03:18:31.304Z,1841
2023-02-23T03:23:50.075Z,1835
2023-02-23T03:29:08.860Z,1820
2023-02-23T03:34:27.696Z,1820
2023-02-23T03:39:46.192Z,1823
2023-02-23T03:45:04.979Z,1823
2023-02-23T03:50:23.489Z,1828
2023-02-23T03:55:41.701Z,1823
2023-02-23T04:01:00.202Z,1811
2023-02-23T04:06:18.446Z,1806
2023-02-23T04:11:37.517Z,1803
2023-02-23T04:16:56.038Z,1798
2023-02-23T04:22:14.824Z,1808
2023-02-23T04:27:33.672Z,1803
2023-02-23T04:32:52.185Z,1817
2023-02-23T04:38:11.039Z,1820
2023-02-23T04:43:29.524Z,1797
2023-02-23T04:48:48.292Z,1768
2023-02-23T04:54:06.725Z,1734
2023-02-23T04:59:25.465Z,1738
2023-02-23T05:04:44.010Z,1725
2023-02-23T05:10:02.418Z,1703
2023-02-23T05:15:21.205Z,1674
2023-02-23T05:20:39.976Z,1655
2023-02-23T05:25:58.703Z,1636
2023-02-23T05:31:16.823Z,1603
2023-02-23T05:36:36.644Z,1600
2023-02-23T05:41:55.175Z,1587
2023-02-23T05:47:13.375Z,1579
2023-02-23T05:52:31.941Z,1261
2023-02-23T05:57:50.820Z,1104
2023-02-23T06:03:09.280Z,1117
2023-02-23T06:08:27.811Z,1150
2023-02-23T06:13:46.617Z,1183
2023-02-23T06:19:04.515Z,1188
2023-02-23T06:24:23.441Z,1199
2023-02-23T06:29:41.949Z,1199
2023-02-23T06:35:00.735Z,1207
2023-02-23T06:40:19.581Z,1218
2023-02-23T06:45:38.286Z,1230
2023-02-23T06:50:57.035Z,1238
2023-02-23T06:56:15.546Z,1250
2023-02-23T07:01:34.049Z,1258
2023-02-23T07:06:52.622Z,1262
2023-02-23T07:12:11.414Z,1269
2023-02-23T07:17:29.730Z,1279
2023-02-23T07:22:48.190Z,1272
2023-02-23T07:28:06.890Z,1264
2023-02-23T07:33:25.498Z,1270
2023-02-23T07:38:28.616Z,1272
2023-02-23T07:43:46.972Z,1274
2023-02-23T07:49:05.330Z,1266
2023-02-23T07:54:23.530Z,1267
2023-02-23T07:59:42.461Z,1266
2023-02-23T08:05:01.207Z,1270
2023-02-23T08:10:19.971Z,1262
2023-02-23T08:15:37.936Z,1265
2023-02-23T08:20:56.543Z,1269
2023-02-23T08:26:15.012Z,1266
2023-02-23T08:31:33.790Z,1267
2023-02-23T08:36:53.698Z,1263
2023-02-23T08:42:12.540Z,1259
2023-02-23T08:47:30.927Z,1251
2023-02-23T08:52:49.521Z,1250
2023-02-23T08:58:07.707Z,1248
2023-02-23T09:03:26.008Z,1246
2023-02-23T09:08:44.731Z,1243
2023-02-23T09:14:02.995Z,1239
2023-02-23T09:19:21.215Z,1238
2023-02-23T09:24:39.549Z,1222
2023-02-23T09:29:57.794Z,1232
2023-02-23T09:35:00.943Z,1254
2023-02-23T09:40:19.297Z,1238
2023-02-23T09:45:22.443Z,1226
2023-02-23T09:50:40.673Z,1217
2023-02-23T09:55:59.722Z,1214
2023-02-23T10:01:18.556Z,1211
2023-02-23T10:06:37.853Z,1204
2023-02-23T10:11:55.772Z,1205
2023-02-23T10:17:14.260Z,1201
2023-02-23T10:22:32.499Z,1195
2023-02-23T10:27:51.588Z,1188
2023-02-23T10:33:09.784Z,1182
2023-02-23T10:38:27.709Z,1177
2023-02-23T10:43:45.910Z,1167
2023-02-23T10:49:04.694Z,1157
2023-02-23T10:54:23.363Z,1152
2023-02-23T10:59:44.143Z,1152
2023-02-23T11:05:02.226Z,1146
2023-02-23T11:10:20.281Z,1133
2023-02-23T11:15:50.165Z,1127
2023-02-23T11:21:08.967Z,1114
2023-02-23T11:26:27.830Z,1104
2023-02-23T11:31:46.867Z,1094
2023-02-23T11:37:05.976Z,1092
2023-02-23T11:42:24.599Z,1089
2023-02-23T11:47:43.467Z,1083
2023-02-23T11:53:01.673Z,1076
2023-02-23T11:58:20.503Z,1071
2023-02-23T12:03:39.295Z,1070
2023-02-23T12:08:57.476Z,1064
2023-02-23T12:14:16.362Z,1056
2023-02-23T12:19:34.847Z,1050
2023-02-23T12:24:53.726Z,1046
2023-02-23T12:30:12.333Z,1040
2023-02-23T12:35:31.366Z,1034
2023-02-23T12:40:51.685Z,1026
2023-02-23T12:46:10.894Z,1022
2023-02-23T12:51:30.094Z,1023
2023-02-23T12:56:48.893Z,1014
2023-02-23T13:02:07.686Z,1010
2023-02-23T13:07:29.270Z,1007
2023-02-23T13:12:47.810Z,1007
2023-02-23T13:18:06.539Z,1004
2023-02-23T13:23:24.778Z,1006
2023-02-23T13:28:43.248Z,997
2023-02-23T13:34:01.488Z,991
2023-02-23T13:39:20.210Z,983
2023-02-23T13:44:38.747Z,978
2023-02-23T13:49:56.941Z,980
2023-02-23T13:55:15.607Z,973
2023-02-23T14:00:33.822Z,973
2023-02-23T14:05:52.608Z,971
2023-02-23T14:11:10.782Z,963
2023-02-23T14:16:29.531Z,954
2023-02-23T14:21:48.064Z,948
2023-02-23T14:27:06.468Z,943
2023-02-23T14:32:25.455Z,934
2023-02-23T14:37:44.323Z,926
2023-02-23T14:42:47.179Z,949
2023-02-23T14:48:05.915Z,746
2023-02-23T14:53:24.851Z,503
2023-02-23T14:58:43.604Z,425
2023-02-23T15:04:02.054Z,402
2023-02-23T15:09:21.067Z,396
2023-02-23T15:14:39.909Z,395
2023-02-23T15:20:13.390Z,390
2023-02-23T15:25:36.411Z,388
2023-02-23T15:30:54.531Z,386
2023-02-23T15:36:14.606Z,386
2023-02-23T15:41:32.854Z,388
2023-02-23T15:46:51.599Z,386
2023-02-23T15:52:10.111Z,385
2023-02-23T15:57:28.990Z,386
2023-02-23T16:02:47.818Z,386
2023-02-23T16:08:06.930Z,392
2023-02-23T16:13:25.276Z,418
2023-02-23T16:18:43.869Z,467
2023-02-23T16:24:02.148Z,516
2023-02-23T16:29:20.655Z,540
2023-02-23T16:34:39.412Z,546
2023-02-23T16:39:58.350Z,552
2023-02-23T16:45:19.301Z,553
2023-02-23T16:50:38.068Z,554
2023-02-23T16:55:56.947Z,558
2023-02-23T17:01:17.914Z,557
2023-02-23T17:06:38.038Z,562
2023-02-23T17:11:56.782Z,561
2023-02-23T17:17:15.279Z,568
2023-02-23T17:22:33.430Z,542
2023-02-23T17:27:52.560Z,539
2023-02-23T17:33:10.689Z,545
2023-02-23T17:38:30.083Z,556
2023-02-23T17:43:48.825Z,575
2023-02-23T17:49:07.343Z,585
2023-02-23T17:54:25.820Z,594
2023-02-23T17:59:44.314Z,599
2023-02-23T18:05:03.128Z,610
2023-02-23T18:10:21.587Z,611
2023-02-23T18:15:39.888Z,619
2023-02-23T18:20:58.189Z,621
2023-02-23T18:26:16.206Z,626
2023-02-23T18:31:34.912Z,632
2023-02-23T18:36:54.043Z,645
2023-02-23T18:42:12.513Z,648
2023-02-23T18:47:34.178Z,663
2023-02-23T18:52:53.247Z,658
2023-02-23T18:58:11.409Z,701
2023-02-23T19:03:29.759Z,668
2023-02-23T19:08:48.246Z,670
2023-02-23T19:14:06.464Z,671
2023-02-23T19:19:25.214Z,668
2023-02-23T19:24:43.681Z,665
2023-02-23T19:30:02.169Z,674
2023-02-23T19:35:20.625Z,676
2023-02-23T19:40:38.925Z,686
2023-02-23T19:45:57.551Z,690
2023-02-23T19:51:16.765Z,698
2023-02-23T19:56:35.358Z,712
2023-02-23T20:01:54.669Z,725
2023-02-23T20:07:13.988Z,737
2023-02-23T20:12:35.541Z,750
2023-02-23T20:17:54.153Z,756
2023-02-23T20:23:12.593Z,719
2023-02-23T20:28:31.436Z,766
2023-02-23T20:33:49.673Z,784
2023-02-23T20:39:07.935Z,786
2023-02-23T20:44:27.223Z,791
2023-02-23T20:49:45.535Z,790
2023-02-23T20:55:04.204Z,795
2023-02-23T21:00:22.808Z,794
2023-02-23T21:05:41.377Z,801
2023-02-23T21:10:59.834Z,816
2023-02-23T21:16:18.206Z,832
2023-02-23T21:21:36.864Z,853
2023-02-23T21:26:54.795Z,883
2023-02-23T21:32:13.235Z,933
2023-02-23T21:37:31.615Z,989
2023-02-23T21:42:50.082Z,1001
2023-02-23T21:48:08.603Z,1002
2023-02-23T21:53:27.100Z,997
2023-02-23T21:58:45.566Z,997
2023-02-23T22:04:04.099Z,1004
2023-02-23T22:09:22.497Z,1006
2023-02-23T22:14:41.163Z,1021
2023-02-23T22:19:59.989Z,1054
2023-02-23T22:25:19.383Z,1070
2023-02-23T22:30:37.325Z,1096
2023-02-23T22:35:55.940Z,1130
2023-02-23T22:41:13.886Z,1162
2023-02-23T22:46:32.177Z,1176
2023-02-23T22:51:50.377Z,1189
2023-02-23T22:57:08.895Z,1202
2023-02-23T23:02:27.148Z,1200
2023-02-23T23:07:45.926Z,1199
2023-02-23T23:13:04.749Z,1204
2023-02-23T23:18:23.502Z,1204
2023-02-23T23:23:42.336Z,1203
2023-02-23T23:29:00.665Z,1207
2023-02-23T23:34:19.154Z,1209
2023-02-23T23:39:37.700Z,1217
2023-02-23T23:44:56.170Z,1229
2023-02-23T23:50:14.720Z,1232
2023-02-23T23:55:32.956Z,1241
